createdAt,value
2019-04-30T00:00:51.966Z,63.88
2019-04-30T00:02:16.082Z,63.92
2019-04-30T00:03:27.736Z,64.01
2019-04-30T00:04:40.283Z,64.10
2019-04-30T00:05:42.844Z,64.17
2019-04-30T00:06:48.241Z,64.21
2019-04-30T00:07:55.052Z,64.24
2019-04-30T00:09:02.460Z,64.29
2019-04-30T00:10:07.727Z,64.30
2019-04-30T00:11:15.934Z,64.34
2019-04-30T00:12:22.037Z,64.34
2019-04-30T00:13:27.675Z,64.38
2019-04-30T00:14:39.939Z,64.37
2019-04-30T00:15:39.665Z,64.44
2019-04-30T00:16:45.102Z,64.50
2019-04-30T00:17:53.001Z,64.50
2019-04-30T00:19:00.465Z,64.48
2019-04-30T00:20:05.302Z,64.49
2019-04-30T00:21:15.169Z,64.48
2019-04-30T00:22:17.367Z,64.52
2019-04-30T00:23:29.306Z,64.59
2019-04-30T00:24:29.921Z,64.67
2019-04-30T00:25:35.334Z,64.73
2019-04-30T00:26:46.755Z,64.78
2019-04-30T00:27:48.171Z,64.80
2019-04-30T00:28:55.231Z,64.89
2019-04-30T00:30:07.348Z,64.90
2019-04-30T00:31:10.065Z,64.93
2019-04-30T00:32:16.040Z,64.90
2019-04-30T00:33:22.333Z,64.89
2019-04-30T00:34:30.877Z,64.88
2019-04-30T00:35:35.520Z,64.95
2019-04-30T00:36:41.084Z,64.99
2019-04-30T00:37:51.733Z,65.01
2019-04-30T00:38:54.814Z,65.03
2019-04-30T00:39:59.894Z,65.08
2019-04-30T00:41:06.941Z,65.10
2019-04-30T00:42:12.261Z,65.11
2019-04-30T00:43:17.443Z,65.12
2019-04-30T00:44:24.904Z,65.16
2019-04-30T00:45:29.408Z,65.22
2019-04-30T00:46:36.470Z,65.28
2019-04-30T00:47:44.628Z,65.34
2019-04-30T00:48:51.431Z,65.39
2019-04-30T00:50:00.078Z,65.46
2019-04-30T00:51:07.429Z,65.47
2019-04-30T00:52:10.662Z,65.49
2019-04-30T00:53:16.656Z,65.51
2019-04-30T00:54:22.335Z,65.51
2019-04-30T00:55:29.080Z,65.51
2019-04-30T00:56:35.528Z,65.61
2019-04-30T00:57:43.787Z,65.70
2019-04-30T00:58:47.604Z,65.80
2019-04-30T00:59:52.838Z,65.88
2019-04-30T01:01:22.716Z,66.00
2019-04-30T01:02:52.259Z,66.06
2019-04-30T01:04:02.575Z,66.17
2019-04-30T01:05:10.866Z,66.23
2019-04-30T01:06:17.211Z,66.29
2019-04-30T01:07:23.138Z,66.33
2019-04-30T01:08:28.742Z,66.38
2019-04-30T01:09:35.404Z,66.38
2019-04-30T01:10:40.591Z,66.41
2019-04-30T01:11:48.061Z,66.42
2019-04-30T01:12:52.886Z,66.49
2019-04-30T01:13:59.084Z,66.60
2019-04-30T01:15:06.399Z,66.69
2019-04-30T01:16:11.117Z,66.74
2019-04-30T01:17:16.572Z,66.89
2019-04-30T01:18:23.546Z,67.04
2019-04-30T01:19:30.664Z,67.11
2019-04-30T01:20:38.587Z,67.15
2019-04-30T01:21:46.924Z,67.19
2019-04-30T01:22:50.818Z,67.18
2019-04-30T01:23:55.934Z,67.20
2019-04-30T01:25:08.017Z,67.22
2019-04-30T01:26:08.763Z,67.26
2019-04-30T01:27:14.157Z,67.31
2019-04-30T01:28:22.849Z,67.35
2019-04-30T01:29:26.442Z,67.37
2019-04-30T01:30:31.690Z,67.41
2019-04-30T01:31:39.687Z,67.43
2019-04-30T01:32:43.750Z,67.43
2019-04-30T01:33:49.334Z,67.44
2019-04-30T01:34:54.557Z,67.41
2019-04-30T01:36:04.170Z,67.42
2019-04-30T01:37:08.715Z,67.42
2019-04-30T01:38:13.859Z,67.37
2019-04-30T01:39:19.600Z,67.37
2019-04-30T01:40:28.520Z,67.42
2019-04-30T01:41:33.737Z,67.47
2019-04-30T01:42:41.129Z,67.57
2019-04-30T01:43:45.846Z,67.67
2019-04-30T01:44:53.850Z,67.80
2019-04-30T01:46:01.749Z,67.87
2019-04-30T01:47:04.884Z,67.91
2019-04-30T01:48:12.806Z,67.91
2019-04-30T01:49:20.064Z,67.99
2019-04-30T01:50:23.829Z,68.01
2019-04-30T01:51:29.212Z,68.01
2019-04-30T01:52:51.890Z,68.05
2019-04-30T01:53:56.855Z,68.07
2019-04-30T01:55:01.807Z,67.98
2019-04-30T01:56:26.645Z,67.93
2019-04-30T01:57:49.310Z,67.93
2019-04-30T01:58:59.400Z,67.95
2019-04-30T02:00:19.571Z,67.94
2019-04-30T02:01:25.735Z,68.00
2019-04-30T02:02:32.744Z,68.07
2019-04-30T02:03:39.944Z,68.07
2019-04-30T02:04:45.267Z,68.14
2019-04-30T02:05:50.374Z,68.20
2019-04-30T02:06:55.630Z,68.30
2019-04-30T02:08:00.681Z,68.35
2019-04-30T02:09:06.545Z,68.40
2019-04-30T02:10:12.496Z,68.42
2019-04-30T02:11:18.998Z,68.42
2019-04-30T02:12:24.154Z,68.36
2019-04-30T02:13:34.185Z,68.33
2019-04-30T02:14:36.077Z,68.33
2019-04-30T02:15:41.531Z,68.30
2019-04-30T02:16:46.720Z,68.30
2019-04-30T02:17:51.949Z,68.31
2019-04-30T02:18:56.995Z,68.29
2019-04-30T02:20:02.119Z,68.27
2019-04-30T02:21:08.953Z,68.22
2019-04-30T02:22:14.036Z,68.23
2019-04-30T02:23:19.719Z,68.26
2019-04-30T02:24:25.534Z,68.31
2019-04-30T02:25:30.766Z,68.35
2019-04-30T02:26:36.220Z,68.38
2019-04-30T02:27:41.578Z,68.40
2019-04-30T02:28:46.803Z,68.43
2019-04-30T02:29:52.065Z,68.40
2019-04-30T02:30:59.965Z,68.35
2019-04-30T02:32:04.317Z,68.29
2019-04-30T02:33:09.743Z,68.24
2019-04-30T02:36:40.662Z,68.23
2019-04-30T02:38:03.143Z,68.25
2019-04-30T02:39:11.177Z,68.33
2019-04-30T02:40:20.200Z,68.46
2019-04-30T02:41:29.285Z,68.59
2019-04-30T02:42:35.520Z,68.64
2019-04-30T02:43:42.433Z,68.75
2019-04-30T02:44:50.507Z,68.81
2019-04-30T02:45:59.897Z,68.89
2019-04-30T02:47:05.302Z,68.88
2019-04-30T02:48:11.834Z,68.89
2019-04-30T02:49:20.450Z,68.91
2019-04-30T02:50:29.228Z,68.92
2019-04-30T02:51:35.009Z,68.94
2019-04-30T02:52:41.480Z,68.92
2019-04-30T02:54:24.029Z,68.90
2019-04-30T02:55:42.501Z,68.92
2019-04-30T02:56:55.537Z,68.96
2019-04-30T02:58:00.705Z,68.98
2019-04-30T02:59:05.831Z,69.04
2019-04-30T03:00:21.057Z,69.05
2019-04-30T03:01:26.158Z,69.05
2019-04-30T03:02:32.370Z,69.07
2019-04-30T03:03:39.319Z,69.13
2019-04-30T03:04:44.403Z,69.13
2019-04-30T03:05:49.754Z,69.09
2019-04-30T03:06:54.758Z,69.11
2019-04-30T03:08:00.421Z,69.13
2019-04-30T03:09:06.905Z,69.20
2019-04-30T03:10:12.140Z,69.23
2019-04-30T03:11:20.688Z,69.25
2019-04-30T03:12:25.770Z,69.33
2019-04-30T03:13:30.831Z,69.37
2019-04-30T03:14:36.154Z,69.42
2019-04-30T03:15:41.191Z,69.39
2019-04-30T03:17:00.134Z,69.40
2019-04-30T03:18:12.445Z,69.37
2019-04-30T03:19:34.446Z,69.37
2019-04-30T03:21:01.388Z,69.33
2019-04-30T03:22:10.151Z,69.37
2019-04-30T03:23:15.494Z,69.41
2019-04-30T03:24:21.155Z,69.45
2019-04-30T03:25:29.654Z,69.49
2019-04-30T03:26:33.548Z,69.47
2019-04-30T03:27:42.232Z,69.45
2019-04-30T03:28:45.824Z,69.47
2019-04-30T03:29:51.108Z,69.50
2019-04-30T03:30:57.437Z,69.47
2019-04-30T03:32:03.700Z,69.43
2019-04-30T03:33:12.642Z,69.44
2019-04-30T03:34:23.266Z,69.47
2019-04-30T03:35:23.399Z,69.45
2019-04-30T03:36:32.637Z,69.41
2019-04-30T03:37:35.665Z,69.39
2019-04-30T03:38:42.781Z,69.37
2019-04-30T03:39:49.319Z,69.43
2019-04-30T03:40:54.858Z,69.46
2019-04-30T03:41:59.914Z,69.48
2019-04-30T03:43:05.113Z,69.43
2019-04-30T03:44:18.527Z,69.39
2019-04-30T03:45:17.036Z,69.32
2019-04-30T03:46:22.200Z,69.29
2019-04-30T03:47:30.113Z,69.30
2019-04-30T03:48:35.283Z,69.32
2019-04-30T03:49:40.734Z,69.38
2019-04-30T03:50:53.241Z,69.43
2019-04-30T03:51:52.880Z,69.47
2019-04-30T03:53:00.444Z,69.43
2019-04-30T03:54:05.308Z,69.44
2019-04-30T03:55:10.692Z,69.45
2019-04-30T03:56:16.155Z,69.48
2019-04-30T03:57:21.296Z,69.53
2019-04-30T03:58:29.131Z,69.51
2019-04-30T03:59:33.495Z,69.55
2019-04-30T04:01:00.385Z,69.52
2019-04-30T04:02:22.360Z,69.55
2019-04-30T04:03:29.708Z,69.46
2019-04-30T04:04:42.198Z,69.45
2019-04-30T04:06:12.842Z,69.50
2019-04-30T04:07:53.038Z,69.51
2019-04-30T04:09:11.483Z,69.51
2019-04-30T04:10:25.784Z,69.48
2019-04-30T04:11:34.402Z,69.46
2019-04-30T04:12:39.718Z,69.42
2019-04-30T04:13:44.860Z,69.50
2019-04-30T04:14:51.173Z,69.52
2019-04-30T04:15:56.565Z,69.48
2019-04-30T04:17:01.953Z,69.54
2019-04-30T04:18:10.346Z,69.59
2019-04-30T04:19:14.289Z,69.65
2019-04-30T04:20:20.246Z,69.67
2019-04-30T04:21:25.698Z,69.71
2019-04-30T04:22:31.026Z,69.74
2019-04-30T04:23:36.188Z,69.77
2019-04-30T04:24:41.808Z,69.76
2019-04-30T04:25:49.807Z,69.75
2019-04-30T04:26:54.348Z,69.79
2019-04-30T04:28:00.531Z,69.86
2019-04-30T04:29:05.963Z,69.88
2019-04-30T04:30:11.673Z,69.93
2019-04-30T04:31:19.073Z,69.94
2019-04-30T04:32:24.654Z,69.94
2019-04-30T04:33:29.876Z,69.97
2019-04-30T04:34:35.153Z,69.96
2019-04-30T04:35:43.518Z,69.94
2019-04-30T04:36:50.619Z,69.96
2019-04-30T04:37:56.111Z,69.97
2019-04-30T04:39:01.231Z,70.00
2019-04-30T04:40:09.120Z,70.01
2019-04-30T04:41:13.527Z,69.97
2019-04-30T04:42:19.530Z,69.99
2019-04-30T04:43:25.434Z,70.03
2019-04-30T04:44:30.517Z,70.01
2019-04-30T04:45:35.923Z,70.01
2019-04-30T04:46:40.981Z,69.97
2019-04-30T04:47:46.472Z,69.98
2019-04-30T04:48:51.906Z,69.91
2019-04-30T04:49:56.911Z,69.90
2019-04-30T04:51:01.933Z,69.95
2019-04-30T04:52:07.276Z,69.97
2019-04-30T04:53:12.478Z,69.99
2019-04-30T04:54:19.939Z,70.00
2019-04-30T04:55:24.340Z,70.05
2019-04-30T04:56:30.467Z,70.12
2019-04-30T04:57:36.027Z,70.17
2019-04-30T04:58:41.686Z,70.18
2019-04-30T04:59:49.648Z,70.25
2019-04-30T05:00:53.706Z,70.28
2019-04-30T05:02:02.037Z,70.30
2019-04-30T05:03:26.194Z,70.29
2019-04-30T05:04:31.304Z,70.29
2019-04-30T05:05:36.409Z,70.29
2019-04-30T05:06:41.547Z,70.35
2019-04-30T05:07:48.620Z,70.36
2019-04-30T05:08:53.779Z,70.33
2019-04-30T05:10:00.987Z,70.27
2019-04-30T05:11:06.471Z,70.21
2019-04-30T05:12:11.435Z,70.06
2019-04-30T05:13:16.753Z,70.00
2019-04-30T05:14:22.077Z,70.04
2019-04-30T05:15:29.358Z,70.07
2019-04-30T05:16:34.581Z,70.08
2019-04-30T05:17:40.035Z,70.07
2019-04-30T05:18:45.546Z,70.05
2019-04-30T05:19:50.646Z,69.99
2019-04-30T05:20:55.826Z,69.96
2019-04-30T05:22:00.951Z,69.92
2019-04-30T05:23:06.325Z,69.86
2019-04-30T05:24:11.381Z,69.87
2019-04-30T05:25:18.566Z,69.82
2019-04-30T05:26:23.707Z,69.74
2019-04-30T05:27:30.304Z,69.66
2019-04-30T05:28:35.534Z,69.59
2019-04-30T05:29:41.124Z,69.53
2019-04-30T05:30:46.721Z,69.48
2019-04-30T05:31:51.994Z,69.40
2019-04-30T05:32:58.813Z,69.38
2019-04-30T05:34:06.374Z,69.32
2019-04-30T05:35:11.979Z,69.25
2019-04-30T05:36:19.178Z,69.11
2019-04-30T05:37:24.305Z,69.08
2019-04-30T05:38:31.319Z,69.14
2019-04-30T05:39:36.622Z,69.17
2019-04-30T05:40:42.649Z,69.19
2019-04-30T05:41:49.197Z,69.17
2019-04-30T05:42:54.393Z,69.19
2019-04-30T05:43:59.466Z,69.09
2019-04-30T05:45:05.380Z,69.04
2019-04-30T05:46:10.982Z,69.02
2019-04-30T05:47:16.115Z,69.00
2019-04-30T05:48:21.635Z,68.96
2019-04-30T05:49:28.675Z,69.00
2019-04-30T05:50:33.615Z,69.08
2019-04-30T05:51:38.904Z,69.08
2019-04-30T05:52:44.344Z,69.09
2019-04-30T05:53:49.734Z,69.03
2019-04-30T05:54:54.858Z,68.93
2019-04-30T05:56:00.132Z,68.86
2019-04-30T05:57:05.795Z,68.74
2019-04-30T05:58:10.969Z,68.65
2019-04-30T05:59:16.501Z,68.61
2019-04-30T06:00:22.027Z,68.55
2019-04-30T06:01:29.368Z,68.55
2019-04-30T06:02:34.600Z,68.52
2019-04-30T06:03:39.785Z,68.51
2019-04-30T06:04:45.097Z,68.50
2019-04-30T06:05:50.332Z,68.41
2019-04-30T06:06:55.492Z,68.28
2019-04-30T06:08:00.888Z,68.16
2019-04-30T06:09:18.766Z,68.15
2019-04-30T06:10:45.661Z,68.02
2019-04-30T06:12:15.922Z,68.08
2019-04-30T06:13:32.110Z,67.98
2019-04-30T06:14:59.346Z,67.85
2019-04-30T06:16:08.769Z,67.86
2019-04-30T06:17:16.274Z,67.77
2019-04-30T06:18:21.601Z,67.66
2019-04-30T06:19:26.595Z,67.56
2019-04-30T06:20:31.898Z,67.40
2019-04-30T06:21:39.073Z,67.30
2019-04-30T06:22:45.042Z,67.15
2019-04-30T06:23:50.228Z,67.01
2019-04-30T06:24:55.943Z,66.90
2019-04-30T06:26:09.861Z,66.78
2019-04-30T06:27:10.764Z,66.68
2019-04-30T06:28:16.458Z,66.55
2019-04-30T06:29:23.410Z,66.45
2019-04-30T06:30:29.737Z,66.33
2019-04-30T06:31:37.995Z,66.20
2019-04-30T06:32:42.717Z,66.04
2019-04-30T06:33:48.762Z,65.87
2019-04-30T06:34:54.245Z,65.64
2019-04-30T06:36:00.238Z,65.44
2019-04-30T06:37:05.626Z,65.31
2019-04-30T06:38:10.861Z,65.13
2019-04-30T06:39:18.622Z,65.05
2019-04-30T06:40:23.625Z,64.82
2019-04-30T06:41:29.580Z,64.79
2019-04-30T06:42:35.085Z,64.61
2019-04-30T06:43:40.547Z,64.42
2019-04-30T06:44:45.993Z,64.37
2019-04-30T06:45:51.579Z,64.20
2019-04-30T06:46:58.791Z,64.12
2019-04-30T06:48:05.594Z,64.07
2019-04-30T06:49:10.873Z,64.18
2019-04-30T06:50:16.548Z,64.14
2019-04-30T06:51:21.680Z,64.16
2019-04-30T06:52:26.826Z,64.10
2019-04-30T06:53:32.085Z,64.02
2019-04-30T06:54:39.267Z,64.10
2019-04-30T06:55:44.348Z,64.07
2019-04-30T06:56:49.457Z,63.92
2019-04-30T06:57:54.389Z,63.57
2019-04-30T06:58:59.540Z,63.49
2019-04-30T07:00:06.001Z,63.27
2019-04-30T07:01:11.551Z,63.22
2019-04-30T07:02:16.865Z,63.17
2019-04-30T07:03:22.551Z,63.10
2019-04-30T07:04:29.309Z,62.93
2019-04-30T07:05:34.687Z,62.81
2019-04-30T07:06:43.901Z,62.58
2019-04-30T07:08:09.208Z,62.39
2019-04-30T07:09:31.645Z,62.34
2019-04-30T07:10:36.717Z,62.19
2019-04-30T07:11:46.377Z,62.02
2019-04-30T07:12:54.932Z,61.54
2019-04-30T07:14:00.179Z,60.87
2019-04-30T07:15:05.778Z,60.75
2019-04-30T07:16:11.227Z,60.36
2019-04-30T07:17:16.419Z,59.52
2019-04-30T07:18:21.612Z,59.05
2019-04-30T07:19:32.969Z,58.97
2019-04-30T07:20:34.227Z,58.84
2019-04-30T07:21:42.886Z,58.48
2019-04-30T07:22:52.433Z,58.11
2019-04-30T07:23:55.091Z,57.67
2019-04-30T07:25:00.360Z,57.57
2019-04-30T07:26:05.558Z,57.40
2019-04-30T07:27:10.808Z,56.99
2019-04-30T07:28:16.231Z,56.83
2019-04-30T07:29:21.814Z,56.65
2019-04-30T07:30:26.934Z,56.49
2019-04-30T07:31:32.081Z,56.39
2019-04-30T07:32:38.685Z,56.26
2019-04-30T07:33:43.886Z,56.08
2019-04-30T07:34:49.636Z,56.00
2019-04-30T07:35:54.960Z,56.00
2019-04-30T07:37:11.980Z,55.96
2019-04-30T07:38:09.891Z,55.87
2019-04-30T07:39:15.298Z,55.87
2019-04-30T07:40:20.702Z,55.83
2019-04-30T07:41:26.174Z,55.68
2019-04-30T07:42:36.335Z,55.60
2019-04-30T07:43:39.517Z,55.61
2019-04-30T07:44:45.055Z,55.46
2019-04-30T07:45:50.278Z,55.36
2019-04-30T07:46:55.365Z,55.30
2019-04-30T07:48:01.841Z,55.17
2019-04-30T07:49:06.952Z,55.06
2019-04-30T07:50:12.845Z,54.95
2019-04-30T07:51:21.319Z,54.82
2019-04-30T07:52:26.084Z,54.72
2019-04-30T07:53:35.184Z,54.57
2019-04-30T07:54:40.556Z,54.41
2019-04-30T07:55:46.047Z,54.28
2019-04-30T07:56:51.118Z,54.22
2019-04-30T07:57:56.429Z,54.14
2019-04-30T07:59:02.873Z,54.11
2019-04-30T08:00:09.645Z,54.10
2019-04-30T08:01:15.179Z,54.15
2019-04-30T08:02:20.933Z,54.25
2019-04-30T08:03:51.747Z,54.39
2019-04-30T08:05:02.692Z,54.39
2019-04-30T08:06:10.114Z,54.14
2019-04-30T08:07:15.190Z,53.93
2019-04-30T08:08:24.505Z,53.89
2019-04-30T08:09:36.602Z,53.90
2019-04-30T08:10:35.208Z,53.85
2019-04-30T08:11:43.507Z,53.84
2019-04-30T08:12:49.806Z,53.73
2019-04-30T08:13:54.635Z,53.76
2019-04-30T08:14:59.711Z,53.76
2019-04-30T08:16:04.822Z,53.54
2019-04-30T08:17:10.086Z,53.48
2019-04-30T08:18:15.323Z,53.45
2019-04-30T08:19:20.732Z,53.32
2019-04-30T08:20:25.687Z,53.27
2019-04-30T08:21:30.804Z,53.28
2019-04-30T08:22:36.287Z,53.23
2019-04-30T08:23:41.887Z,53.32
2019-04-30T08:24:49.010Z,53.45
2019-04-30T08:25:53.882Z,53.56
2019-04-30T08:27:01.166Z,53.58
2019-04-30T08:28:06.329Z,53.57
2019-04-30T08:29:11.776Z,53.58
2019-04-30T08:30:23.756Z,53.64
2019-04-30T08:31:23.770Z,53.66
2019-04-30T08:32:29.139Z,53.73
2019-04-30T08:33:34.207Z,53.88
2019-04-30T08:34:39.485Z,54.01
2019-04-30T08:35:44.519Z,54.07
2019-04-30T08:36:49.685Z,54.12
2019-04-30T08:37:54.937Z,54.02
2019-04-30T08:39:00.029Z,53.99
2019-04-30T08:40:05.528Z,54.02
2019-04-30T08:41:10.748Z,54.12
2019-04-30T08:42:28.218Z,54.18
2019-04-30T08:43:23.056Z,54.24
2019-04-30T08:44:29.505Z,54.24
2019-04-30T08:45:34.927Z,54.26
2019-04-30T08:46:40.138Z,54.29
2019-04-30T08:47:45.378Z,54.31
2019-04-30T08:48:53.580Z,54.34
2019-04-30T08:49:59.422Z,54.35
2019-04-30T08:51:04.611Z,54.35
2019-04-30T08:52:10.574Z,54.33
2019-04-30T08:53:26.692Z,54.39
2019-04-30T08:54:23.268Z,54.44
2019-04-30T08:55:30.463Z,54.47
2019-04-30T08:56:35.174Z,54.60
2019-04-30T08:57:40.169Z,54.65
2019-04-30T08:58:45.236Z,54.69
2019-04-30T08:59:50.855Z,54.73
2019-04-30T09:00:56.250Z,54.61
2019-04-30T09:02:12.906Z,54.60
2019-04-30T09:03:09.391Z,54.64
2019-04-30T09:04:14.510Z,54.61
2019-04-30T09:05:38.794Z,54.51
2019-04-30T09:06:44.219Z,54.38
2019-04-30T09:07:49.678Z,54.14
2019-04-30T09:08:59.212Z,53.98
2019-04-30T09:10:04.890Z,53.72
2019-04-30T09:11:22.628Z,53.57
2019-04-30T09:12:19.431Z,53.37
2019-04-30T09:13:24.026Z,53.24
2019-04-30T09:14:30.026Z,53.11
2019-04-30T09:15:35.189Z,53.03
2019-04-30T09:16:40.332Z,52.95
2019-04-30T09:17:58.929Z,52.92
2019-04-30T09:18:52.609Z,52.94
2019-04-30T09:19:58.950Z,52.99
2019-04-30T09:21:06.469Z,53.04
2019-04-30T09:22:15.098Z,53.09
2019-04-30T09:23:18.697Z,53.17
2019-04-30T09:24:23.859Z,53.25
2019-04-30T09:25:29.068Z,53.31
2019-04-30T09:26:34.159Z,53.35
2019-04-30T09:27:39.943Z,53.28
2019-04-30T09:28:45.175Z,53.25
2019-04-30T09:29:50.287Z,53.22
2019-04-30T09:30:55.342Z,53.29
2019-04-30T09:32:00.373Z,53.26
2019-04-30T09:33:05.503Z,53.29
2019-04-30T09:34:17.131Z,53.32
2019-04-30T09:35:19.508Z,53.33
2019-04-30T09:36:24.665Z,53.34
2019-04-30T09:37:30.590Z,53.34
2019-04-30T09:38:35.748Z,53.25
2019-04-30T09:39:40.904Z,53.05
2019-04-30T09:40:46.062Z,52.87
2019-04-30T09:41:51.547Z,52.76
2019-04-30T09:42:58.513Z,52.70
2019-04-30T09:44:04.241Z,52.64
2019-04-30T09:45:09.480Z,52.65
2019-04-30T09:46:22.453Z,52.63
2019-04-30T09:47:21.720Z,52.59
2019-04-30T09:48:30.266Z,52.67
2019-04-30T09:49:33.968Z,52.71
2019-04-30T09:50:39.535Z,52.72
2019-04-30T09:51:44.807Z,52.77
2019-04-30T09:52:50.248Z,52.91
2019-04-30T09:53:59.661Z,53.02
2019-04-30T09:55:03.426Z,53.04
2019-04-30T09:58:59.252Z,53.08
2019-04-30T10:03:20.894Z,53.21
2019-04-30T10:04:30.065Z,53.23
2019-04-30T10:05:34.614Z,53.17
2019-04-30T10:06:40.402Z,53.21
2019-04-30T10:07:45.652Z,53.27
2019-04-30T10:08:51.400Z,53.30
2019-04-30T10:09:56.781Z,53.24
2019-04-30T10:11:21.732Z,53.03
2019-04-30T10:12:27.032Z,52.96
2019-04-30T10:13:32.292Z,52.85
2019-04-30T10:14:40.782Z,52.80
2019-04-30T10:16:07.035Z,52.67
2019-04-30T10:17:35.376Z,52.53
2019-04-30T10:18:40.916Z,52.45
2019-04-30T10:19:46.084Z,52.40
2019-04-30T10:20:51.320Z,52.20
2019-04-30T10:21:58.869Z,52.08
2019-04-30T10:23:03.695Z,51.88
2019-04-30T10:24:13.051Z,51.79
2019-04-30T10:25:15.781Z,51.66
2019-04-30T10:26:21.166Z,51.51
2019-04-30T10:27:26.360Z,51.41
2019-04-30T10:28:33.078Z,51.38
2019-04-30T10:29:39.510Z,51.26
2019-04-30T10:30:45.169Z,51.25
2019-04-30T10:31:50.492Z,51.27
2019-04-30T10:32:55.713Z,51.29
2019-04-30T10:34:00.894Z,51.24
2019-04-30T10:35:06.990Z,51.28
2019-04-30T10:36:12.074Z,51.29
2019-04-30T10:37:18.928Z,51.36
2019-04-30T10:38:24.204Z,51.37
2019-04-30T10:39:29.918Z,51.40
2019-04-30T10:40:35.415Z,51.48
2019-04-30T10:41:40.713Z,51.51
2019-04-30T10:42:46.100Z,51.50
2019-04-30T10:43:51.312Z,51.50
2019-04-30T10:45:00.024Z,51.48
2019-04-30T10:46:03.424Z,51.48
2019-04-30T10:47:09.365Z,51.45
2019-04-30T10:48:14.470Z,51.47
2019-04-30T10:49:20.292Z,51.41
2019-04-30T10:50:26.022Z,51.33
2019-04-30T10:51:31.206Z,51.22
2019-04-30T10:52:36.446Z,51.13
2019-04-30T10:53:41.725Z,51.08
2019-04-30T10:54:47.028Z,51.04
2019-04-30T10:55:52.211Z,50.97
2019-04-30T10:56:59.145Z,50.87
2019-04-30T10:58:04.883Z,50.84
2019-04-30T10:59:10.278Z,50.68
2019-04-30T11:00:16.068Z,50.51
2019-04-30T11:01:21.381Z,50.24
2019-04-30T11:02:28.808Z,50.10
2019-04-30T11:03:33.632Z,49.79
2019-04-30T11:04:39.079Z,49.56
2019-04-30T11:05:44.274Z,49.68
2019-04-30T11:06:49.480Z,49.67
2019-04-30T11:07:54.674Z,49.74
2019-04-30T11:09:00.040Z,49.86
2019-04-30T11:10:05.459Z,49.89
2019-04-30T11:11:10.700Z,49.84
2019-04-30T11:12:16.198Z,49.70
2019-04-30T11:13:21.705Z,49.55
2019-04-30T11:14:26.763Z,49.29
2019-04-30T11:15:31.921Z,49.14
2019-04-30T11:16:37.127Z,49.13
2019-04-30T11:17:42.444Z,49.06
2019-04-30T11:18:47.767Z,49.01
2019-04-30T11:19:53.092Z,49.00
2019-04-30T11:20:59.645Z,48.99
2019-04-30T11:22:05.337Z,48.99
2019-04-30T11:23:14.663Z,48.89
2019-04-30T11:24:19.582Z,48.86
2019-04-30T11:25:25.794Z,48.84
2019-04-30T11:26:32.427Z,48.89
2019-04-30T11:27:40.185Z,48.84
2019-04-30T11:28:44.904Z,48.76
2019-04-30T11:29:50.432Z,48.63
2019-04-30T11:31:09.421Z,48.55
2019-04-30T11:32:20.299Z,48.56
2019-04-30T11:33:25.715Z,48.55
2019-04-30T11:34:30.926Z,48.61
2019-04-30T11:35:36.396Z,48.59
2019-04-30T11:36:41.576Z,48.52
2019-04-30T11:37:47.018Z,48.51
2019-04-30T11:38:52.263Z,48.46
2019-04-30T11:39:57.567Z,48.36
2019-04-30T11:41:02.656Z,48.41
2019-04-30T11:42:07.899Z,48.45
2019-04-30T11:43:13.492Z,48.43
2019-04-30T11:44:30.310Z,48.32
2019-04-30T11:45:33.676Z,48.22
2019-04-30T11:47:09.548Z,48.22
2019-04-30T11:48:14.734Z,48.26
2019-04-30T11:49:19.756Z,47.75
2019-04-30T11:50:24.917Z,47.78
2019-04-30T11:51:30.077Z,47.88
2019-04-30T11:52:35.360Z,47.99
2019-04-30T11:53:40.537Z,48.06
2019-04-30T11:54:51.592Z,48.05
2019-04-30T11:55:53.317Z,47.96
2019-04-30T11:56:58.892Z,47.77
2019-04-30T11:58:04.133Z,47.54
2019-04-30T11:59:09.266Z,47.51
2019-04-30T12:00:18.699Z,47.31
2019-04-30T12:01:25.059Z,47.22
2019-04-30T12:02:35.673Z,47.27
2019-04-30T12:03:40.976Z,47.30
2019-04-30T12:04:46.372Z,47.37
2019-04-30T12:05:51.464Z,47.43
2019-04-30T12:06:58.530Z,47.53
2019-04-30T12:08:19.448Z,47.55
2019-04-30T12:09:49.708Z,47.59
2019-04-30T12:11:01.580Z,47.56
2019-04-30T12:12:09.041Z,47.62
2019-04-30T12:13:33.444Z,47.73
2019-04-30T12:14:39.540Z,47.80
2019-04-30T12:15:44.894Z,47.81
2019-04-30T12:16:50.711Z,47.73
2019-04-30T12:17:56.001Z,47.53
2019-04-30T12:19:01.414Z,47.39
2019-04-30T12:20:08.610Z,47.31
2019-04-30T12:21:13.884Z,47.29
2019-04-30T12:22:20.314Z,47.24
2019-04-30T12:23:26.038Z,47.25
2019-04-30T12:24:31.440Z,47.32
2019-04-30T12:25:36.486Z,47.37
2019-04-30T12:26:41.896Z,47.44
2019-04-30T12:27:48.785Z,47.49
2019-04-30T12:28:54.036Z,47.49
2019-04-30T12:29:59.514Z,47.49
2019-04-30T12:31:06.305Z,47.40
2019-04-30T12:32:11.291Z,47.38
2019-04-30T12:33:16.377Z,47.37
2019-04-30T12:34:21.584Z,47.37
2019-04-30T12:35:26.760Z,47.34
2019-04-30T12:36:32.133Z,47.25
2019-04-30T12:37:39.067Z,47.17
2019-04-30T12:38:44.323Z,47.14
2019-04-30T12:39:49.540Z,47.20
2019-04-30T12:40:56.993Z,47.23
2019-04-30T12:42:02.942Z,47.27
2019-04-30T12:43:08.255Z,47.12
2019-04-30T12:44:13.531Z,46.90
2019-04-30T12:45:19.431Z,46.86
2019-04-30T12:46:24.538Z,46.84
2019-04-30T12:47:31.238Z,46.73
2019-04-30T12:48:44.154Z,46.64
2019-04-30T12:49:55.445Z,46.64
2019-04-30T12:51:19.678Z,46.69
2019-04-30T12:52:30.256Z,46.64
2019-04-30T12:53:45.910Z,46.59
2019-04-30T12:55:00.548Z,46.60
2019-04-30T12:56:30.010Z,46.54
2019-04-30T12:57:39.275Z,46.50
2019-04-30T12:58:44.524Z,46.51
2019-04-30T12:59:49.728Z,46.55
2019-04-30T13:00:54.897Z,46.66
2019-04-30T13:02:00.140Z,46.75
2019-04-30T13:03:05.249Z,46.84
2019-04-30T13:04:10.705Z,46.86
2019-04-30T13:05:15.926Z,46.86
2019-04-30T13:06:21.874Z,46.78
2019-04-30T13:07:29.912Z,46.75
2019-04-30T13:08:34.808Z,46.72
2019-04-30T13:09:40.942Z,46.71
2019-04-30T13:10:46.955Z,46.67
2019-04-30T13:11:52.822Z,46.54
2019-04-30T13:12:59.098Z,46.37
2019-04-30T13:14:06.526Z,46.21
2019-04-30T13:15:12.266Z,46.13
2019-04-30T13:16:19.371Z,46.12
2019-04-30T13:17:24.570Z,46.08
2019-04-30T13:18:29.755Z,46.07
2019-04-30T13:19:35.116Z,46.03
2019-04-30T13:20:40.481Z,46.02
2019-04-30T13:21:45.812Z,46.03
2019-04-30T13:22:51.051Z,46.04
2019-04-30T13:23:56.123Z,46.09
2019-04-30T13:25:01.212Z,46.14
2019-04-30T13:26:06.313Z,46.21
2019-04-30T13:27:11.514Z,46.18
2019-04-30T13:28:19.733Z,46.15
2019-04-30T13:29:32.008Z,46.03
2019-04-30T13:30:39.504Z,45.85
2019-04-30T13:31:44.341Z,45.79
2019-04-30T13:33:13.707Z,45.69
2019-04-30T13:34:39.622Z,45.65
2019-04-30T13:35:44.736Z,45.55
2019-04-30T13:36:49.873Z,45.39
2019-04-30T13:37:59.916Z,45.36
2019-04-30T13:39:21.183Z,45.39
2019-04-30T13:40:44.250Z,45.39
2019-04-30T13:41:57.071Z,45.18
2019-04-30T13:43:02.430Z,45.29
2019-04-30T13:44:13.516Z,45.24
2019-04-30T13:45:20.692Z,45.20
2019-04-30T13:46:25.624Z,45.08
2019-04-30T13:47:30.845Z,44.96
2019-04-30T13:48:35.833Z,44.87
2019-04-30T13:49:40.876Z,44.79
2019-04-30T13:50:46.285Z,44.70
2019-04-30T13:51:51.535Z,44.56
2019-04-30T13:52:58.721Z,44.40
2019-04-30T13:54:03.395Z,44.43
2019-04-30T13:55:10.897Z,44.43
2019-04-30T13:56:15.808Z,44.32
2019-04-30T13:57:20.988Z,44.25
2019-04-30T13:58:26.409Z,44.25
2019-04-30T13:59:31.568Z,44.28
2019-04-30T14:00:37.015Z,44.32
2019-04-30T14:01:42.271Z,44.27
2019-04-30T14:02:53.374Z,44.33
2019-04-30T14:04:14.166Z,44.44
2019-04-30T14:05:19.421Z,44.38
2019-04-30T14:06:26.254Z,44.34
2019-04-30T14:07:50.557Z,44.37
2019-04-30T14:08:59.641Z,44.38
2019-04-30T14:10:04.824Z,44.43
2019-04-30T14:11:10.158Z,44.50
2019-04-30T14:12:15.994Z,44.57
2019-04-30T14:13:22.027Z,44.61
2019-04-30T14:14:27.000Z,44.70
2019-04-30T14:15:32.544Z,44.76
2019-04-30T14:16:37.577Z,44.65
2019-04-30T14:17:42.882Z,44.62
2019-04-30T14:18:48.810Z,44.50
2019-04-30T14:19:53.984Z,44.38
2019-04-30T14:21:00.960Z,44.42
2019-04-30T14:22:08.889Z,44.51
2019-04-30T14:23:14.584Z,44.49
2019-04-30T14:24:19.934Z,44.46
2019-04-30T14:25:25.075Z,44.44
2019-04-30T14:26:30.381Z,44.45
2019-04-30T14:27:36.039Z,44.44
2019-04-30T14:28:41.311Z,44.43
2019-04-30T14:29:46.443Z,44.50
2019-04-30T14:30:51.592Z,44.61
2019-04-30T14:31:58.636Z,44.71
2019-04-30T14:33:03.757Z,44.67
2019-04-30T14:34:11.922Z,44.58